createdAt,value
2022-11-30T00:36:47.717Z,6.78
2022-11-30T00:39:39.221Z,7.60
2022-11-30T00:42:30.573Z,8.18
2022-11-30T00:45:21.765Z,7.22
2022-11-30T00:50:52.926Z,7.05
2022-11-30T00:53:44.936Z,6.92
2022-11-30T00:56:35.943Z,6.78
2022-11-30T00:59:27.662Z,6.60
2022-11-30T01:02:19.720Z,7.15
2022-11-30T01:05:11.646Z,8.03
2022-11-30T01:08:03.333Z,7.10
2022-11-30T01:10:56.289Z,7.62
2022-11-30T01:13:47.869Z,7.47
2022-11-30T01:16:39.623Z,8.38
2022-11-30T01:19:31.426Z,8.20
2022-11-30T01:22:22.986Z,7.35
2022-11-30T01:25:14.516Z,7.87
2022-11-30T01:28:06.119Z,7.62
2022-11-30T01:31:02.945Z,7.12
2022-11-30T01:33:56.481Z,8.20
2022-11-30T01:36:51.055Z,7.92
2022-11-30T01:39:42.743Z,7.67
2022-11-30T01:42:50.029Z,7.05
2022-11-30T01:46:06.766Z,7.00
2022-11-30T01:49:03.559Z,7.08
2022-11-30T01:51:59.234Z,7.50
2022-11-30T01:54:53.718Z,7.80
2022-11-30T01:57:48.987Z,7.85
2022-11-30T02:00:41.035Z,7.53
2022-11-30T02:03:37.854Z,7.67
2022-11-30T02:06:30.195Z,7.70
2022-11-30T02:09:24.013Z,7.35
2022-11-30T02:15:06.568Z,7.10
2022-11-30T02:18:00.159Z,7.47
2022-11-30T02:21:02.910Z,8.00
2022-11-30T02:24:37.769Z,7.55
2022-11-30T02:27:39.548Z,7.28
2022-11-30T02:30:33.390Z,7.50
2022-11-30T02:33:27.973Z,7.28
2022-11-30T02:36:19.940Z,7.00
2022-11-30T02:39:13.392Z,7.33
2022-11-30T02:42:05.142Z,7.35
2022-11-30T02:44:57.210Z,7.50
2022-11-30T02:47:51.089Z,7.75
2022-11-30T02:50:46.042Z,7.40
2022-11-30T02:53:38.297Z,7.78
2022-11-30T02:56:30.885Z,8.35
2022-11-30T02:59:22.622Z,7.60
2022-11-30T03:02:14.907Z,7.50
2022-11-30T03:05:07.115Z,7.28
2022-11-30T03:07:58.681Z,7.47
2022-11-30T03:10:50.672Z,7.50
2022-11-30T03:13:41.865Z,7.30
2022-11-30T03:16:33.800Z,7.15
2022-11-30T03:19:25.262Z,7.80
2022-11-30T03:22:16.809Z,7.37
2022-11-30T03:25:10.021Z,7.35
2022-11-30T03:28:02.693Z,7.37
2022-11-30T03:30:54.172Z,7.28
2022-11-30T03:33:45.839Z,7.25
2022-11-30T03:36:37.300Z,7.47
2022-11-30T03:39:29.134Z,7.37
2022-11-30T03:42:20.734Z,7.60
2022-11-30T03:45:13.338Z,7.28
2022-11-30T03:48:04.592Z,7.62
2022-11-30T03:50:56.125Z,7.85
2022-11-30T03:53:47.860Z,7.75
2022-11-30T03:56:39.298Z,6.90
2022-11-30T03:59:30.622Z,7.78
2022-11-30T04:02:21.869Z,7.75
2022-11-30T04:05:13.693Z,7.45
2022-11-30T04:08:05.610Z,7.40
2022-11-30T04:10:58.233Z,7.05
2022-11-30T04:13:49.685Z,7.72
2022-11-30T04:16:40.962Z,7.55
2022-11-30T04:19:36.717Z,7.08
2022-11-30T04:22:31.022Z,7.42
2022-11-30T04:25:31.815Z,7.28
2022-11-30T04:28:25.167Z,6.22
2022-11-30T04:31:21.252Z,6.10
2022-11-30T04:34:15.149Z,6.35
2022-11-30T04:37:09.198Z,6.28
2022-11-30T04:40:02.958Z,6.30
2022-11-30T04:42:59.180Z,5.62
2022-11-30T04:46:00.960Z,5.72
2022-11-30T04:48:53.463Z,5.37
2022-11-30T04:51:45.283Z,5.30
2022-11-30T04:54:40.022Z,5.12
2022-11-30T04:57:36.234Z,4.87
2022-11-30T05:00:30.910Z,5.60
2022-11-30T05:03:25.075Z,5.33
2022-11-30T05:06:17.387Z,4.90
2022-11-30T05:09:09.463Z,5.20
2022-11-30T05:12:06.317Z,5.47
2022-11-30T05:15:01.624Z,5.17
2022-11-30T05:17:55.583Z,4.95
2022-11-30T05:20:51.940Z,4.95
2022-11-30T05:23:45.174Z,5.50
2022-11-30T05:26:41.613Z,5.78
2022-11-30T05:29:35.908Z,5.95
2022-11-30T05:32:33.875Z,5.97
2022-11-30T05:38:08.502Z,5.70
2022-11-30T05:41:04.227Z,5.87
2022-11-30T05:43:59.100Z,5.78
2022-11-30T05:46:53.654Z,5.40
2022-11-30T05:49:48.610Z,5.50
2022-11-30T05:52:42.590Z,5.10
2022-11-30T05:55:34.889Z,5.47
2022-11-30T05:58:27.151Z,5.97
2022-11-30T06:01:23.783Z,5.72
2022-11-30T06:04:15.005Z,5.15
2022-11-30T06:07:06.442Z,5.37
2022-11-30T06:09:57.990Z,5.40
2022-11-30T06:12:50.076Z,5.37
2022-11-30T06:15:42.518Z,5.50
2022-11-30T06:18:38.237Z,5.47
2022-11-30T06:21:29.389Z,5.47
2022-11-30T06:24:21.065Z,5.92
2022-11-30T06:27:12.830Z,7.67
2022-11-30T06:30:04.543Z,5.28
2022-11-30T06:32:56.219Z,6.03
2022-11-30T06:35:48.953Z,5.03
2022-11-30T06:38:44.716Z,4.87
2022-11-30T06:41:37.809Z,5.30
2022-11-30T06:44:29.541Z,5.53
2022-11-30T06:47:21.227Z,4.90
2022-11-30T06:50:14.112Z,4.58
2022-11-30T06:53:05.911Z,5.15
2022-11-30T06:55:57.684Z,5.33
2022-11-30T06:58:49.095Z,4.75
2022-11-30T07:01:40.476Z,5.30
2022-11-30T07:04:32.077Z,4.42
2022-11-30T07:07:24.782Z,5.00
2022-11-30T07:10:20.103Z,5.10
2022-11-30T07:13:14.632Z,5.10
2022-11-30T07:16:08.693Z,5.65
2022-11-30T07:19:00.218Z,5.17
2022-11-30T07:21:51.818Z,5.08
2022-11-30T07:25:01.029Z,5.25
2022-11-30T07:27:53.386Z,5.25
2022-11-30T07:30:44.746Z,5.05
2022-11-30T07:33:37.864Z,5.95
2022-11-30T07:36:31.667Z,5.50
2022-11-30T07:39:23.917Z,5.10
2022-11-30T07:42:17.251Z,5.47
2022-11-30T07:45:10.907Z,5.25
2022-11-30T07:48:02.452Z,4.60
2022-11-30T07:50:54.018Z,4.90
2022-11-30T07:53:45.808Z,4.78
2022-11-30T07:56:37.469Z,4.50
2022-11-30T07:59:29.211Z,4.05
2022-11-30T08:02:20.465Z,3.87
2022-11-30T08:05:12.835Z,4.87
2022-11-30T08:08:04.309Z,4.12
2022-11-30T08:10:58.528Z,4.30
2022-11-30T08:13:51.757Z,3.98
2022-11-30T08:16:44.357Z,3.95
2022-11-30T08:19:35.963Z,3.20
2022-11-30T08:22:27.944Z,3.90
2022-11-30T08:25:19.924Z,3.80
2022-11-30T08:28:11.405Z,3.52
2022-11-30T08:31:04.170Z,3.95
2022-11-30T08:33:59.142Z,4.35
2022-11-30T08:36:53.448Z,3.80
2022-11-30T08:39:44.936Z,3.77
2022-11-30T08:42:36.345Z,3.87
2022-11-30T08:45:28.391Z,3.83
2022-11-30T08:48:20.055Z,4.40
2022-11-30T08:51:15.078Z,3.85
2022-11-30T08:54:08.885Z,4.00
2022-11-30T08:57:00.708Z,4.03
2022-11-30T08:59:52.605Z,4.40
2022-11-30T09:02:58.195Z,4.47
2022-11-30T09:05:49.439Z,4.30
2022-11-30T09:11:23.594Z,4.15
2022-11-30T09:14:15.135Z,4.17
2022-11-30T09:17:07.112Z,4.55
2022-11-30T09:19:58.715Z,3.92
2022-11-30T09:22:51.829Z,3.45
2022-11-30T09:25:43.266Z,3.25
2022-11-30T09:28:35.480Z,3.25
2022-11-30T09:31:28.447Z,3.52
2022-11-30T09:37:01.361Z,3.45
2022-11-30T09:39:53.106Z,3.52
2022-11-30T09:42:54.790Z,3.37
2022-11-30T09:48:53.110Z,3.35
2022-11-30T09:51:50.466Z,3.45
2022-11-30T09:54:44.460Z,3.52
2022-11-30T09:57:39.030Z,4.20
2022-11-30T10:00:30.893Z,4.30
2022-11-30T10:03:27.944Z,3.95
2022-11-30T10:06:23.951Z,3.55
2022-11-30T10:09:27.129Z,4.20
2022-11-30T10:12:21.910Z,3.85
2022-11-30T10:15:20.407Z,3.83
2022-11-30T10:18:15.881Z,3.92
2022-11-30T10:21:12.373Z,4.55
2022-11-30T10:24:15.450Z,4.17
2022-11-30T10:27:12.136Z,4.35
2022-11-30T10:30:04.522Z,4.35
2022-11-30T10:32:58.818Z,4.87
2022-11-30T10:35:52.834Z,4.00
2022-11-30T10:38:47.493Z,4.58
2022-11-30T10:41:44.865Z,5.05
2022-11-30T10:44:42.464Z,5.10
2022-11-30T10:47:37.417Z,4.87
2022-11-30T10:50:31.723Z,3.95
2022-11-30T10:53:23.252Z,4.17
2022-11-30T10:56:15.942Z,4.60
2022-11-30T10:59:12.767Z,4.65
2022-11-30T11:02:06.564Z,5.00
2022-11-30T11:05:26.046Z,4.28
2022-11-30T11:08:25.821Z,4.40
2022-11-30T11:11:33.071Z,4.83
2022-11-30T11:14:30.417Z,6.70
2022-11-30T11:17:28.613Z,5.45
2022-11-30T11:20:35.993Z,4.08
2022-11-30T11:26:12.482Z,4.53
2022-11-30T11:29:06.401Z,4.67
2022-11-30T11:32:08.651Z,4.95
2022-11-30T11:35:01.328Z,4.60
2022-11-30T11:37:54.606Z,4.20
2022-11-30T11:40:55.566Z,4.62
2022-11-30T11:44:04.012Z,5.03
2022-11-30T11:46:58.585Z,5.30
2022-11-30T11:49:50.931Z,5.10
2022-11-30T11:52:43.699Z,4.95
2022-11-30T11:55:37.191Z,4.35
2022-11-30T11:58:36.911Z,5.30
2022-11-30T12:01:47.274Z,5.08
2022-11-30T12:04:47.788Z,5.40
2022-11-30T12:07:42.447Z,3.75
2022-11-30T12:10:54.261Z,4.90
2022-11-30T12:13:35.658Z,4.20
2022-11-30T12:16:37.354Z,4.60
2022-11-30T12:22:20.232Z,4.70
2022-11-30T12:25:22.423Z,4.70
2022-11-30T12:28:21.587Z,4.15
2022-11-30T12:31:17.386Z,4.10
2022-11-30T12:34:13.509Z,4.47
2022-11-30T12:37:07.715Z,5.30
2022-11-30T12:40:05.082Z,5.03
2022-11-30T12:43:00.862Z,4.85
2022-11-30T12:45:55.345Z,4.87
2022-11-30T12:48:51.114Z,5.00
2022-11-30T12:54:27.856Z,4.12
2022-11-30T12:57:22.951Z,4.55
2022-11-30T13:00:17.997Z,4.47
2022-11-30T13:03:30.790Z,4.33
2022-11-30T13:09:07.870Z,5.30
2022-11-30T13:12:02.757Z,4.75
2022-11-30T13:14:57.373Z,4.83
2022-11-30T13:17:50.686Z,4.83
2022-11-30T13:20:46.244Z,4.65
2022-11-30T13:23:40.638Z,4.75
2022-11-30T13:26:35.745Z,4.78
2022-11-30T13:29:55.293Z,4.90
2022-11-30T13:32:58.023Z,5.30
2022-11-30T13:35:56.425Z,5.10
2022-11-30T13:38:50.625Z,5.00
2022-11-30T13:41:43.627Z,4.50
2022-11-30T13:44:38.087Z,4.72
2022-11-30T13:48:16.492Z,4.70
2022-11-30T13:56:48.457Z,4.22
2022-11-30T13:59:41.375Z,4.67
2022-11-30T14:03:21.045Z,4.70
2022-11-30T14:06:48.688Z,4.70
2022-11-30T14:10:00.989Z,4.65
2022-11-30T14:13:01.866Z,5.45
2022-11-30T14:16:00.078Z,5.10
2022-11-30T14:21:44.850Z,5.42
2022-11-30T14:24:37.235Z,4.72
2022-11-30T14:27:30.732Z,5.30
2022-11-30T14:30:23.869Z,4.55
2022-11-30T14:33:19.904Z,4.40
2022-11-30T14:36:12.654Z,4.85
2022-11-30T14:39:04.802Z,4.83
2022-11-30T14:41:58.114Z,5.60
2022-11-30T14:44:50.927Z,4.87
2022-11-30T14:47:47.953Z,5.05
2022-11-30T14:50:36.631Z,4.85
2022-11-30T14:53:39.728Z,5.33
2022-11-30T14:59:27.098Z,5.80
2022-11-30T15:02:25.041Z,5.10
2022-11-30T15:05:19.419Z,5.87
2022-11-30T15:10:55.170Z,5.83
2022-11-30T15:13:52.715Z,5.08
2022-11-30T15:16:52.655Z,5.33
2022-11-30T15:19:47.722Z,6.00
2022-11-30T15:22:40.611Z,6.00
2022-11-30T15:25:37.700Z,5.60
2022-11-30T15:28:32.603Z,5.95
2022-11-30T15:34:21.939Z,5.75
2022-11-30T15:37:13.770Z,5.33
2022-11-30T15:40:08.892Z,5.60
2022-11-30T15:43:01.389Z,6.53
2022-11-30T15:45:58.049Z,5.87
2022-11-30T15:48:49.522Z,6.10
2022-11-30T15:51:44.935Z,5.78
2022-11-30T15:54:52.527Z,6.12
2022-11-30T15:58:02.498Z,6.75
2022-11-30T16:01:05.294Z,5.90
2022-11-30T16:04:05.652Z,5.92
2022-11-30T16:06:57.919Z,5.05
2022-11-30T16:09:49.713Z,5.65
2022-11-30T16:12:43.229Z,7.25
2022-11-30T16:15:36.444Z,7.62
2022-11-30T16:18:29.558Z,7.28
2022-11-30T16:21:24.120Z,7.55
2022-11-30T16:24:17.217Z,6.97
2022-11-30T16:27:20.514Z,7.53
2022-11-30T16:30:17.974Z,8.00
2022-11-30T16:33:15.347Z,6.25
2022-11-30T16:36:12.068Z,5.95
2022-11-30T16:39:07.522Z,6.92
2022-11-30T16:42:01.368Z,6.12
2022-11-30T16:44:52.989Z,6.75
2022-11-30T16:47:45.265Z,6.05
2022-11-30T16:50:38.013Z,6.10
2022-11-30T16:53:29.472Z,7.15
2022-11-30T16:56:21.487Z,6.25
2022-11-30T16:59:16.674Z,6.22
2022-11-30T17:02:09.249Z,6.20
2022-11-30T17:05:00.815Z,6.30
2022-11-30T17:07:52.303Z,6.58
2022-11-30T17:10:43.669Z,6.15
2022-11-30T17:13:35.306Z,7.30
2022-11-30T17:16:26.956Z,7.85
2022-11-30T17:19:19.006Z,6.97
2022-11-30T17:22:10.622Z,6.85
2022-11-30T17:25:02.053Z,10.35
2022-11-30T17:27:53.806Z,8.45
2022-11-30T17:30:45.431Z,9.05
2022-11-30T17:33:37.958Z,8.90
2022-11-30T17:36:29.898Z,11.33
2022-11-30T17:39:21.512Z,12.23
2022-11-30T17:42:12.906Z,14.50
2022-11-30T17:45:06.855Z,8.60
2022-11-30T17:47:58.064Z,9.03
2022-11-30T17:50:52.675Z,9.68
2022-11-30T17:53:45.260Z,8.40
2022-11-30T17:56:37.113Z,8.68
2022-11-30T17:59:28.707Z,8.55
2022-11-30T18:02:20.248Z,9.45
2022-11-30T18:05:12.417Z,8.43
2022-11-30T18:08:06.912Z,8.83
2022-11-30T18:10:58.563Z,9.35
2022-11-30T18:13:51.854Z,7.83
2022-11-30T18:16:43.603Z,8.63
2022-11-30T18:19:34.996Z,7.97
2022-11-30T18:22:26.366Z,8.00
2022-11-30T18:25:18.446Z,11.38
2022-11-30T18:28:10.006Z,8.98
2022-11-30T18:31:01.785Z,8.23
2022-11-30T18:33:56.548Z,9.53
2022-11-30T18:36:47.921Z,8.68
2022-11-30T18:39:39.254Z,8.13
2022-11-30T18:42:31.963Z,8.53
2022-11-30T18:45:23.509Z,8.08
2022-11-30T18:48:14.847Z,7.67
2022-11-30T18:51:13.058Z,7.22
2022-11-30T18:54:06.846Z,7.37
2022-11-30T18:56:58.313Z,8.55
2022-11-30T18:59:53.858Z,8.53
2022-11-30T19:02:43.214Z,7.50
2022-11-30T19:05:36.839Z,7.33
2022-11-30T19:08:28.243Z,7.65
2022-11-30T19:11:20.494Z,7.47
2022-11-30T19:14:15.803Z,8.15
2022-11-30T19:17:07.513Z,8.38
2022-11-30T19:20:00.780Z,8.70
2022-11-30T19:22:51.622Z,8.35
2022-11-30T19:25:43.296Z,9.58
2022-11-30T19:28:36.534Z,9.33
2022-11-30T19:31:30.557Z,9.50
2022-11-30T19:34:22.392Z,9.20
2022-11-30T19:37:15.457Z,9.40
2022-11-30T19:40:09.295Z,9.70
2022-11-30T19:43:01.222Z,9.25
2022-11-30T19:45:53.201Z,9.05
2022-11-30T19:48:45.347Z,9.63
2022-11-30T19:51:37.015Z,9.88
2022-11-30T19:54:28.759Z,11.03
2022-11-30T19:57:20.469Z,11.05
2022-11-30T20:00:14.358Z,10.72
2022-11-30T20:03:08.589Z,9.93
2022-11-30T20:06:00.237Z,10.72
2022-11-30T20:08:51.898Z,9.65
2022-11-30T20:11:43.111Z,10.72
2022-11-30T20:14:34.279Z,10.82
2022-11-30T20:20:10.283Z,10.95
2022-11-30T20:23:01.821Z,10.43
2022-11-30T20:25:54.705Z,10.78
2022-11-30T20:28:46.230Z,11.18
2022-11-30T20:31:39.205Z,11.60
2022-11-30T20:34:34.347Z,11.05
2022-11-30T20:37:23.387Z,10.65
2022-11-30T20:40:15.620Z,10.78
2022-11-30T20:43:07.920Z,10.72
2022-11-30T20:45:59.851Z,10.98
2022-11-30T20:48:52.008Z,10.65
2022-11-30T20:51:43.229Z,10.53
2022-11-30T20:54:34.560Z,9.95
2022-11-30T20:57:26.209Z,9.90
2022-11-30T21:00:18.807Z,10.50
2022-11-30T21:03:10.132Z,10.93
2022-11-30T21:06:01.776Z,10.25
2022-11-30T21:08:53.229Z,10.78
2022-11-30T21:11:45.713Z,11.90
2022-11-30T21:14:37.236Z,10.80
2022-11-30T21:17:28.579Z,11.80
2022-11-30T21:20:20.428Z,11.35
2022-11-30T21:23:12.203Z,11.15
2022-11-30T21:26:07.126Z,10.53
2022-11-30T21:31:40.595Z,11.55
2022-11-30T21:34:32.157Z,11.28
2022-11-30T21:37:23.914Z,11.48
2022-11-30T21:40:16.437Z,12.35
2022-11-30T21:43:08.229Z,12.78
2022-11-30T21:46:02.023Z,12.70
2022-11-30T21:48:53.884Z,14.00
2022-11-30T21:51:45.647Z,12.40
2022-11-30T21:54:36.871Z,12.73
2022-11-30T21:57:28.466Z,13.32
2022-11-30T22:00:22.085Z,13.10
2022-11-30T22:03:18.125Z,12.65
2022-11-30T22:06:09.152Z,10.65
2022-11-30T22:09:05.436Z,9.88
2022-11-30T22:14:36.391Z,9.95
2022-11-30T22:17:32.474Z,9.53
2022-11-30T22:20:23.622Z,9.93
2022-11-30T22:23:16.457Z,10.48
2022-11-30T22:26:13.288Z,10.23
2022-11-30T22:29:06.715Z,10.15
2022-11-30T22:31:57.909Z,11.30
2022-11-30T22:34:50.199Z,12.35
2022-11-30T22:37:41.691Z,12.07
2022-11-30T22:40:33.344Z,12.95
2022-11-30T22:46:10.108Z,12.28
2022-11-30T22:49:02.911Z,11.50
2022-11-30T22:51:54.393Z,11.50
2022-11-30T22:54:45.963Z,10.15
2022-11-30T23:00:17.951Z,10.45
2022-11-30T23:03:09.716Z,11.25
2022-11-30T23:06:02.015Z,10.63
2022-11-30T23:08:54.200Z,10.68
2022-11-30T23:11:46.236Z,9.53
2022-11-30T23:14:37.864Z,9.68
2022-11-30T23:17:29.580Z,9.25
2022-11-30T23:20:22.621Z,9.73
2022-11-30T23:23:14.162Z,9.73
2022-11-30T23:26:12.997Z,9.98
2022-11-30T23:29:06.486Z,9.58
2022-11-30T23:34:36.261Z,10.32
2022-11-30T23:37:27.662Z,10.00
2022-11-30T23:40:19.826Z,11.75
2022-11-30T23:43:10.987Z,11.63
2022-11-30T23:46:02.625Z,14.30
2022-11-30T23:48:55.942Z,17.48
2022-11-30T23:54:29.190Z,12.98
